sensor_id;sensor_type;location;lat;lon;timestamp;pressure;altitude;pressure_sealevel;temperature;humidity
42111;BME280;27766;52.174;5.456;2022-10-23T00:01:54;101313.94;;;11.32;100.00
42111;BME280;27766;52.174;5.456;2022-10-23T00:04:22;101310.44;;;11.30;100.00
42111;BME280;27766;52.174;5.456;2022-10-23T00:06:52;101290.41;;;11.22;100.00
42111;BME280;27766;52.174;5.456;2022-10-23T00:09:22;101298.25;;;11.26;100.00
42111;BME280;27766;52.174;5.456;2022-10-23T00:11:51;101299.09;;;11.24;100.00
42111;BME280;27766;52.174;5.456;2022-10-23T00:14:21;101302.53;;;11.23;100.00
42111;BME280;27766;52.174;5.456;2022-10-23T00:16:49;101301.63;;;11.23;100.00
42111;BME280;27766;52.174;5.456;2022-10-23T00:19:16;101296.38;;;11.20;100.00
42111;BME280;27766;52.174;5.456;2022-10-23T00:21:43;101304.22;;;11.23;100.00
42111;BME280;27766;52.174;5.456;2022-10-23T00:24:11;101297.34;;;11.23;100.00
42111;BME280;27766;52.174;5.456;2022-10-23T00:26:39;101309.47;;;11.24;100.00
42111;BME280;27766;52.174;5.456;2022-10-23T00:29:07;101307.69;;;11.22;100.00
42111;BME280;27766;52.174;5.456;2022-10-23T00:31:34;101299.03;;;11.23;100.00
42111;BME280;27766;52.174;5.456;2022-10-23T00:34:02;101318.97;;;11.26;100.00
42111;BME280;27766;52.174;5.456;2022-10-23T00:36:29;101300.78;;;11.24;100.00
42111;BME280;27766;52.174;5.456;2022-10-23T00:38:57;101306.19;;;11.33;100.00
42111;BME280;27766;52.174;5.456;2022-10-23T00:41:28;101295.84;;;11.35;100.00
42111;BME280;27766;52.174;5.456;2022-10-23T00:44:07;101295.00;;;11.36;100.00
42111;BME280;27766;52.174;5.456;2022-10-23T00:46:36;101293.25;;;11.35;100.00
42111;BME280;27766;52.174;5.456;2022-10-23T00:49:05;101292.38;;;11.34;100.00
42111;BME280;27766;52.174;5.456;2022-10-23T00:51:39;101292.38;;;11.34;100.00
42111;BME280;27766;52.174;5.456;2022-10-23T00:54:07;101290.63;;;11.33;100.00
42111;BME280;27766;52.174;5.456;2022-10-23T00:56:57;101295.00;;;11.36;100.00
42111;BME280;27766;52.174;5.456;2022-10-23T00:59:25;101284.59;;;11.33;100.00
42111;BME280;27766;52.174;5.456;2022-10-23T01:01:53;101290.75;;;11.38;100.00
42111;BME280;27766;52.174;5.456;2022-10-23T01:04:21;101282.03;;;11.34;100.00
42111;BME280;27766;52.174;5.456;2022-10-23T01:09:48;101277.38;;;11.19;100.00
42111;BME280;27766;52.174;5.456;2022-10-23T01:15:40;101291.25;;;11.23;100.00
42111;BME280;27766;52.174;5.456;2022-10-23T01:18:10;101295.47;;;11.18;100.00
42111;BME280;27766;52.174;5.456;2022-10-23T01:20:45;101296.25;;;11.14;100.00
42111;BME280;27766;52.174;5.456;2022-10-23T01:26:20;101275.19;;;10.98;100.00
42111;BME280;27766;52.174;5.456;2022-10-23T01:29:00;101281.34;;;11.03;100.00
42111;BME280;27766;52.174;5.456;2022-10-23T01:31:34;101281.41;;;11.06;100.00
42111;BME280;27766;52.174;5.456;2022-10-23T01:34:09;101279.56;;;11.01;100.00
42111;BME280;27766;52.174;5.456;2022-10-23T01:36:41;101278.56;;;10.96;100.00
42111;BME280;27766;52.174;5.456;2022-10-23T01:39:18;101280.31;;;10.97;100.00
42111;BME280;27766;52.174;5.456;2022-10-23T01:41:54;101278.56;;;10.96;100.00
42111;BME280;27766;52.174;5.456;2022-10-23T01:44:46;101267.53;;;11.04;100.00
42111;BME280;27766;52.174;5.456;2022-10-23T01:47:17;101260.59;;;11.03;100.00
42111;BME280;27766;52.174;5.456;2022-10-23T01:49:47;101260.59;;;11.03;100.00
42111;BME280;27766;52.174;5.456;2022-10-23T01:52:17;101254.50;;;11.01;100.00
42111;BME280;27766;52.174;5.456;2022-10-23T01:54:46;101263.19;;;11.03;100.00
42111;BME280;27766;52.174;5.456;2022-10-23T01:57:17;101251.03;;;10.99;100.00
42111;BME280;27766;52.174;5.456;2022-10-23T01:59:50;101249.31;;;11.00;100.00
42111;BME280;27766;52.174;5.456;2022-10-23T02:02:20;101253.53;;;10.96;100.00
42111;BME280;27766;52.174;5.456;2022-10-23T02:07:21;101243.84;;;10.87;100.00
42111;BME280;27766;52.174;5.456;2022-10-23T02:09:48;101236.03;;;10.86;100.00
42111;BME280;27766;52.174;5.456;2022-10-23T02:15:10;101227.38;;;10.84;100.00
42111;BME280;27766;52.174;5.456;2022-10-23T02:20:35;101219.53;;;10.82;100.00
42111;BME280;27766;52.174;5.456;2022-10-23T02:23:21;101217.59;;;10.72;100.00
42111;BME280;27766;52.174;5.456;2022-10-23T02:26:18;101217.75;;;10.78;100.00
42111;BME280;27766;52.174;5.456;2022-10-23T02:28:51;101219.44;;;10.77;100.00
42111;BME280;27766;52.174;5.456;2022-10-23T02:31:21;101208.84;;;10.67;100.00
42111;BME280;27766;52.174;5.456;2022-10-23T02:33:49;101204.56;;;10.69;100.00
42111;BME280;27766;52.174;5.456;2022-10-23T02:36:17;101204.59;;;10.70;100.00
42111;BME280;27766;52.174;5.456;2022-10-23T02:38:45;101196.84;;;10.70;100.00
42111;BME280;27766;52.174;5.456;2022-10-23T02:41:28;101190.72;;;10.67;100.00
42111;BME280;27766;52.174;5.456;2022-10-23T02:44:06;101189.06;;;10.70;100.00
42111;BME280;27766;52.174;5.456;2022-10-23T02:46:48;101196.03;;;10.73;100.00
42111;BME280;27766;52.174;5.456;2022-10-23T02:49:45;101200.22;;;10.68;100.00
42111;BME280;27766;52.174;5.456;2022-10-23T02:52:36;101203.63;;;10.65;100.00
42111;BME280;27766;52.174;5.456;2022-10-23T02:55:13;101202.69;;;10.61;100.00
42111;BME280;27766;52.174;5.456;2022-10-23T02:57:53;101198.28;;;10.57;100.00
42111;BME280;27766;52.174;5.456;2022-10-23T03:00:23;101202.44;;;10.51;100.00
42111;BME280;27766;52.174;5.456;2022-10-23T03:02:57;101198.91;;;10.49;100.00
42111;BME280;27766;52.174;5.456;2022-10-23T03:05:33;101188.44;;;10.42;100.00
42111;BME280;27766;52.174;5.456;2022-10-23T03:08:03;101185.00;;;10.43;100.00
42111;BME280;27766;52.174;5.456;2022-10-23T03:10:30;101190.22;;;10.45;100.00
42111;BME280;27766;52.174;5.456;2022-10-23T03:12:57;101182.31;;;10.39;100.00
42111;BME280;27766;52.174;5.456;2022-10-23T03:15:24;101177.09;;;10.37;100.00
42111;BME280;27766;52.174;5.456;2022-10-23T03:17:51;101174.41;;;10.34;100.00
42111;BME280;27766;52.174;5.456;2022-10-23T03:20:18;101183.16;;;10.39;100.00
42111;BME280;27766;52.174;5.456;2022-10-23T03:22:45;101167.63;;;10.38;100.00
42111;BME280;27766;52.174;5.456;2022-10-23T03:25:13;101159.00;;;10.37;100.00
42111;BME280;27766;52.174;5.456;2022-10-23T03:27:40;101167.63;;;10.39;100.00
42111;BME280;27766;52.174;5.456;2022-10-23T03:30:07;101170.31;;;10.42;100.00
42111;BME280;27766;52.174;5.456;2022-10-23T03:32:34;101172.91;;;10.42;100.00
42111;BME280;27766;52.174;5.456;2022-10-23T03:35:02;101172.06;;;10.43;100.00
42111;BME280;27766;52.174;5.456;2022-10-23T03:37:29;101162.56;;;10.42;100.00
42111;BME280;27766;52.174;5.456;2022-10-23T03:39:56;101162.63;;;10.45;100.00
42111;BME280;27766;52.174;5.456;2022-10-23T03:42:24;101161.75;;;10.45;100.00
42111;BME280;27766;52.174;5.456;2022-10-23T03:44:51;101157.47;;;10.45;100.00
42111;BME280;27766;52.174;5.456;2022-10-23T03:47:18;101148.78;;;10.43;100.00
42111;BME280;27766;52.174;5.456;2022-10-23T03:49:46;101150.34;;;10.38;100.00
42111;BME280;27766;52.174;5.456;2022-10-23T03:52:13;101146.09;;;10.40;100.00
42111;BME280;27766;52.174;5.456;2022-10-23T03:54:41;101140.00;;;10.38;100.00
42111;BME280;27766;52.174;5.456;2022-10-23T03:57:08;101136.44;;;10.35;100.00
42111;BME280;27766;52.174;5.456;2022-10-23T03:59:35;101134.75;;;10.35;100.00
42111;BME280;27766;52.174;5.456;2022-10-23T04:02:02;101124.41;;;10.35;100.00
42111;BME280;27766;52.174;5.456;2022-10-23T04:04:29;101130.41;;;10.34;100.00
42111;BME280;27766;52.174;5.456;2022-10-23T04:06:56;101114.03;;;10.34;100.00
42111;BME280;27766;52.174;5.456;2022-10-23T04:09:23;101109.72;;;10.34;100.00
42111;BME280;27766;52.174;5.456;2022-10-23T04:11:50;101103.69;;;10.35;100.00
42111;BME280;27766;52.174;5.456;2022-10-23T04:14:17;101097.50;;;10.28;100.00
42111;BME280;27766;52.174;5.456;2022-10-23T04:16:44;101092.41;;;10.32;100.00
42111;BME280;27766;52.174;5.456;2022-10-23T04:19:11;101094.22;;;10.36;100.00
42111;BME280;27766;52.174;5.456;2022-10-23T04:21:38;101090.81;;;10.37;100.00
42111;BME280;27766;52.174;5.456;2022-10-23T04:24:06;101093.44;;;10.38;100.00
42111;BME280;27766;52.174;5.456;2022-10-23T04:26:33;101085.72;;;10.40;100.00
42111;BME280;27766;52.174;5.456;2022-10-23T04:29:00;101070.19;;;10.40;100.00
42111;BME280;27766;52.174;5.456;2022-10-23T04:31:27;101076.34;;;10.45;100.00
42111;BME280;27766;52.174;5.456;2022-10-23T04:33:54;101074.59;;;10.44;100.00
42111;BME280;27766;52.174;5.456;2022-10-23T04:36:21;101065.16;;;10.46;100.00
42111;BME280;27766;52.174;5.456;2022-10-23T04:38:48;101063.25;;;10.37;100.00
42111;BME280;27766;52.174;5.456;2022-10-23T04:41:16;101062.38;;;10.38;100.00
42111;BME280;27766;52.174;5.456;2022-10-23T04:43:43;101062.22;;;10.32;100.00
42111;BME280;27766;52.174;5.456;2022-10-23T04:46:10;101055.53;;;10.40;100.00
42111;BME280;27766;52.174;5.456;2022-10-23T04:48:40;101064.22;;;10.42;100.00
42111;BME280;27766;52.174;5.456;2022-10-23T04:51:08;101057.22;;;10.38;100.00
42111;BME280;27766;52.174;5.456;2022-10-23T04:53:35;101068.47;;;10.40;100.00
42111;BME280;27766;52.174;5.456;2022-10-23T04:56:05;101058.78;;;10.32;100.00
42111;BME280;27766;52.174;5.456;2022-10-23T04:58:32;101066.81;;;10.42;100.00
42111;BME280;27766;52.174;5.456;2022-10-23T05:01:02;101054.63;;;10.38;100.00
42111;BME280;27766;52.174;5.456;2022-10-23T05:03:32;101052.19;;;10.44;100.00
42111;BME280;27766;52.174;5.456;2022-10-23T05:06:00;101047.97;;;10.48;100.00
42111;BME280;27766;52.174;5.456;2022-10-23T05:08:27;101051.41;;;10.49;100.00
42111;BME280;27766;52.174;5.456;2022-10-23T05:10:54;101048.78;;;10.45;100.00
42111;BME280;27766;52.174;5.456;2022-10-23T05:13:21;101045.28;;;10.43;100.00
42111;BME280;27766;52.174;5.456;2022-10-23T05:15:50;101054.91;;;10.51;100.00
42111;BME280;27766;52.174;5.456;2022-10-23T05:21:05;101045.53;;;10.56;100.00
42111;BME280;27766;52.174;5.456;2022-10-23T05:23:35;101040.41;;;10.57;100.00
42111;BME280;27766;52.174;5.456;2022-10-23T05:26:03;101042.19;;;10.61;100.00
42111;BME280;27766;52.174;5.456;2022-10-23T05:28:31;101043.13;;;10.65;100.00
42111;BME280;27766;52.174;5.456;2022-10-23T05:31:01;101056.16;;;10.68;100.00
42111;BME280;27766;52.174;5.456;2022-10-23T05:33:30;101046.63;;;10.67;100.00
42111;BME280;27766;52.174;5.456;2022-10-23T05:36:02;101026.69;;;10.63;100.00
42111;BME280;27766;52.174;5.456;2022-10-23T05:38:31;101035.47;;;10.70;100.00
42111;BME280;27766;52.174;5.456;2022-10-23T05:41:02;101035.56;;;10.74;100.00
42111;BME280;27766;52.174;5.456;2022-10-23T05:43:32;101038.16;;;10.74;100.00
42111;BME280;27766;52.174;5.456;2022-10-23T05:46:03;101038.28;;;10.82;100.00
42111;BME280;27766;52.174;5.456;2022-10-23T05:48:33;101029.75;;;10.86;100.00
42111;BME280;27766;52.174;5.456;2022-10-23T05:51:03;101035.81;;;10.87;100.00
42111;BME280;27766;52.174;5.456;2022-10-23T05:53:30;101019.41;;;10.86;100.00
42111;BME280;27766;52.174;5.456;2022-10-23T05:56:07;101019.41;;;10.86;100.00
42111;BME280;27766;52.174;5.456;2022-10-23T05:58:34;101030.88;;;10.99;100.00
42111;BME280;27766;52.174;5.456;2022-10-23T06:01:10;101029.16;;;11.00;100.00
42111;BME280;27766;52.174;5.456;2022-10-23T06:03:37;101015.34;;;10.99;100.00
42111;BME280;27766;52.174;5.456;2022-10-23T06:06:06;101023.25;;;11.08;100.00
42111;BME280;27766;52.174;5.456;2022-10-23T06:08:33;101025.94;;;11.13;100.00
42111;BME280;27766;52.174;5.456;2022-10-23T06:11:08;101009.38;;;11.05;100.00
42111;BME280;27766;52.174;5.456;2022-10-23T06:13:36;101018.16;;;11.13;100.00
42111;BME280;27766;52.174;5.456;2022-10-23T06:16:19;101018.16;;;11.12;100.00
42111;BME280;27766;52.174;5.456;2022-10-23T06:18:47;101010.47;;;11.16;100.00
42111;BME280;27766;52.174;5.456;2022-10-23T06:21:14;101017.41;;;11.17;100.00
42111;BME280;27766;52.174;5.456;2022-10-23T06:23:43;101003.66;;;11.23;100.00
42111;BME280;27766;52.174;5.456;2022-10-23T06:26:12;101008.06;;;11.26;100.00
42111;BME280;27766;52.174;5.456;2022-10-23T06:28:40;100998.53;;;11.24;100.00
42111;BME280;27766;52.174;5.456;2022-10-23T06:31:09;100996.88;;;11.28;100.00
42111;BME280;27766;52.174;5.456;2022-10-23T06:33:37;100993.44;;;11.31;100.00
42111;BME280;27766;52.174;5.456;2022-10-23T06:36:05;100995.13;;;11.29;100.00
42111;BME280;27766;52.174;5.456;2022-10-23T06:38:34;100986.53;;;11.31;100.00
42111;BME280;27766;52.174;5.456;2022-10-23T06:41:03;100986.53;;;11.31;100.00
42111;BME280;27766;52.174;5.456;2022-10-23T06:43:31;100981.47;;;11.37;100.00
42111;BME280;27766;52.174;5.456;2022-10-23T06:46:02;100984.00;;;11.34;100.00
42111;BME280;27766;52.174;5.456;2022-10-23T06:48:30;100978.91;;;11.37;100.00
42111;BME280;27766;52.174;5.456;2022-10-23T06:50:58;100983.31;;;11.45;100.00
42111;BME280;27766;52.174;5.456;2022-10-23T06:53:30;100973.84;;;11.47;100.00
42111;BME280;27766;52.174;5.456;2022-10-23T06:55:58;100973.72;;;11.39;100.00
42111;BME280;27766;52.174;5.456;2022-10-23T06:58:30;100971.97;;;11.38;100.00
42111;BME280;27766;52.174;5.456;2022-10-23T07:01:03;100973.81;;;11.45;100.00
42111;BME280;27766;52.174;5.456;2022-10-23T07:03:31;100960.94;;;11.48;100.00
42111;BME280;27766;52.174;5.456;2022-10-23T07:06:02;100952.16;;;11.42;100.00
42111;BME280;27766;52.174;5.456;2022-10-23T07:08:32;100960.88;;;11.47;100.00
42111;BME280;27766;52.174;5.456;2022-10-23T07:11:07;100959.28;;;11.55;100.00
42111;BME280;27766;52.174;5.456;2022-10-23T07:13:35;100960.19;;;11.57;100.00
42111;BME280;27766;52.174;5.456;2022-10-23T07:18:41;100956.78;;;11.61;100.00
42111;BME280;27766;52.174;5.456;2022-10-23T07:21:08;100963.84;;;11.70;100.00
42111;BME280;27766;52.174;5.456;2022-10-23T07:23:36;100975.06;;;11.67;100.00
42111;BME280;27766;52.174;5.456;2022-10-23T07:26:08;100969.03;;;11.68;100.00
42111;BME280;27766;52.174;5.456;2022-10-23T07:28:36;100956.09;;;11.71;100.00
42111;BME280;27766;52.174;5.456;2022-10-23T07:31:04;100957.03;;;11.77;100.00
42111;BME280;27766;52.174;5.456;2022-10-23T07:33:31;100962.28;;;11.81;100.00
42111;BME280;27766;52.174;5.456;2022-10-23T07:35:59;100964.94;;;11.84;100.00
42111;BME280;27766;52.174;5.456;2022-10-23T07:38:28;100961.56;;;11.90;100.00
42111;BME280;27766;52.174;5.456;2022-10-23T07:40:58;100956.44;;;11.96;100.00
42111;BME280;27766;52.174;5.456;2022-10-23T07:43:28;100954.81;;;12.01;100.00
42111;BME280;27766;52.174;5.456;2022-10-23T07:46:01;100950.59;;;12.07;100.00
42111;BME280;27766;52.174;5.456;2022-10-23T07:48:29;100953.25;;;12.13;100.00
42111;BME280;27766;52.174;5.456;2022-10-23T07:50:57;100942.91;;;12.16;100.00
42111;BME280;27766;52.174;5.456;2022-10-23T07:53:27;100934.25;;;12.14;100.00
42111;BME280;27766;52.174;5.456;2022-10-23T07:55:56;100939.59;;;12.26;100.00
42111;BME280;27766;52.174;5.456;2022-10-23T07:58:25;100941.34;;;12.30;100.00
42111;BME280;27766;52.174;5.456;2022-10-23T08:01:02;100933.63;;;12.33;100.00
42111;BME280;27766;52.174;5.456;2022-10-23T08:03:33;100923.28;;;12.37;100.00
42111;BME280;27766;52.174;5.456;2022-10-23T08:06:00;100938.06;;;12.44;100.00
42111;BME280;27766;52.174;5.456;2022-10-23T08:08:27;100934.66;;;12.48;100.00
42111;BME280;27766;52.174;5.456;2022-10-23T08:10:54;100927.75;;;12.48;100.00
42111;BME280;27766;52.174;5.456;2022-10-23T08:13:22;100930.41;;;12.56;100.00
42111;BME280;27766;52.174;5.456;2022-10-23T08:15:50;100919.13;;;12.51;100.00
42111;BME280;27766;52.174;5.456;2022-10-23T08:18:18;100917.50;;;12.61;100.00
42111;BME280;27766;52.174;5.456;2022-10-23T08:20:47;100923.63;;;12.69;100.00
42111;BME280;27766;52.174;5.456;2022-10-23T08:23:17;100928.00;;;12.73;100.00
42111;BME280;27766;52.174;5.456;2022-10-23T08:25:45;100919.41;;;12.77;100.00
42111;BME280;27766;52.174;5.456;2022-10-23T08:28:12;100909.91;;;12.81;100.00
42111;BME280;27766;52.174;5.456;2022-10-23T08:30:41;100915.16;;;12.86;100.00
42111;BME280;27766;52.174;5.456;2022-10-23T08:33:08;100922.97;;;12.89;100.00
42111;BME280;27766;52.174;5.456;2022-10-23T08:35:36;100914.31;;;12.88;100.00
42111;BME280;27766;52.174;5.456;2022-10-23T08:38:04;100910.88;;;12.92;100.00
42111;BME280;27766;52.174;5.456;2022-10-23T08:40:32;100910.97;;;13.03;100.00
42111;BME280;27766;52.174;5.456;2022-10-23T08:45:44;100883.28;;;13.04;100.00
42111;BME280;27766;52.174;5.456;2022-10-23T08:48:32;100885.03;;;13.08;100.00
42111;BME280;27766;52.174;5.456;2022-10-23T08:51:26;100877.22;;;13.08;100.00
42111;BME280;27766;52.174;5.456;2022-10-23T08:53:57;100871.22;;;13.15;100.00
42111;BME280;27766;52.174;5.456;2022-10-23T08:56:36;100865.22;;;13.18;100.00
42111;BME280;27766;52.174;5.456;2022-10-23T08:59:29;100866.06;;;13.20;100.00
42111;BME280;27766;52.174;5.456;2022-10-23T09:02:07;100866.16;;;13.27;100.00
42111;BME280;27766;52.174;5.456;2022-10-23T09:04:40;100871.34;;;13.30;100.00
42111;BME280;27766;52.174;5.456;2022-10-23T09:12:40;100851.63;;;13.56;100.00
42111;BME280;27766;52.174;5.456;2022-10-23T09:15:16;100856.00;;;13.65;100.00
42111;BME280;27766;52.174;5.456;2022-10-23T09:17:46;100851.69;;;13.68;100.00
42111;BME280;27766;52.174;5.456;2022-10-23T09:20:33;100843.03;;;13.72;100.00
42111;BME280;27766;52.174;5.456;2022-10-23T09:23:05;100838.72;;;13.76;100.00
42111;BME280;27766;52.174;5.456;2022-10-23T09:25:37;100842.22;;;13.81;100.00
42111;BME280;27766;52.174;5.456;2022-10-23T09:28:04;100833.59;;;13.88;100.00
42111;BME280;27766;52.174;5.456;2022-10-23T09:30:37;100831.88;;;13.92;100.00
42111;BME280;27766;52.174;5.456;2022-10-23T09:33:18;100825.78;;;13.91;100.00
42111;BME280;27766;52.174;5.456;2022-10-23T09:36:03;100829.25;;;13.93;100.00
42111;BME280;27766;52.174;5.456;2022-10-23T09:38:33;100831.84;;;13.93;100.00
42111;BME280;27766;52.174;5.456;2022-10-23T09:41:14;100826.66;;;13.93;100.00
42111;BME280;27766;52.174;5.456;2022-10-23T09:43:43;100835.34;;;13.96;100.00
42111;BME280;27766;52.174;5.456;2022-10-23T09:46:10;100827.50;;;13.92;100.00
42111;BME280;27766;52.174;5.456;2022-10-23T09:48:38;100815.38;;;13.87;100.00
42111;BME280;27766;52.174;5.456;2022-10-23T09:51:17;100825.78;;;13.91;100.00
42111;BME280;27766;52.174;5.456;2022-10-23T09:53:51;100813.66;;;13.92;100.00
42111;BME280;27766;52.174;5.456;2022-10-23T09:56:23;100817.97;;;13.91;100.00
42111;BME280;27766;52.174;5.456;2022-10-23T09:59:04;100813.63;;;13.89;100.00
42111;BME280;27766;52.174;5.456;2022-10-23T10:01:58;100804.09;;;13.91;100.00
42111;BME280;27766;52.174;5.456;2022-10-23T10:04:38;100804.13;;;13.94;100.00
42111;BME280;27766;52.174;5.456;2022-10-23T10:07:21;100804.13;;;13.97;100.00
42111;BME280;27766;52.174;5.456;2022-10-23T10:09:48;100804.13;;;13.99;100.00
42111;BME280;27766;52.174;5.456;2022-10-23T10:15:19;100793.75;;;14.08;100.00
42111;BME280;27766;52.174;5.456;2022-10-23T10:18:01;100798.09;;;14.12;100.00
42111;BME280;27766;52.174;5.456;2022-10-23T10:20:53;100796.38;;;14.17;100.00
42111;BME280;27766;52.174;5.456;2022-10-23T10:23:33;100785.97;;;14.20;100.00
42111;BME280;27766;52.174;5.456;2022-10-23T10:34:28;100769.50;;;14.37;100.00
42111;BME280;27766;52.174;5.456;2022-10-23T10:37:02;100762.59;;;14.40;100.00
42111;BME280;27766;52.174;5.456;2022-10-23T10:39:37;100747.81;;;14.41;100.00
42111;BME280;27766;52.174;5.456;2022-10-23T10:45:18;100743.47;;;14.46;100.00
42111;BME280;27766;52.174;5.456;2022-10-23T10:47:57;100739.13;;;14.48;100.00
42111;BME280;27766;52.174;5.456;2022-10-23T10:50:42;100733.06;;;14.49;100.00
42111;BME280;27766;52.174;5.456;2022-10-23T10:53:19;100732.22;;;14.55;100.00
42111;BME280;27766;52.174;5.456;2022-10-23T10:55:50;100718.28;;;14.56;100.00
42111;BME280;27766;52.174;5.456;2022-10-23T10:58:27;100694.00;;;14.54;100.00
42111;BME280;27766;52.174;5.456;2022-10-23T11:00:59;100696.63;;;14.59;100.00
42111;BME280;27766;52.174;5.456;2022-10-23T11:03:41;100692.25;;;14.59;100.00
42111;BME280;27766;52.174;5.456;2022-10-23T11:06:15;100684.47;;;14.57;100.00
42111;BME280;27766;52.174;5.456;2022-10-23T11:08:44;100687.91;;;14.64;100.00
42111;BME280;27766;52.174;5.456;2022-10-23T11:11:34;100686.19;;;14.65;100.00
42111;BME280;27766;52.174;5.456;2022-10-23T11:14:03;100694.00;;;14.72;100.00
42111;BME280;27766;52.174;5.456;2022-10-23T11:16:34;100694.00;;;14.76;100.00
42111;BME280;27766;52.174;5.456;2022-10-23T11:19:04;100680.97;;;14.80;100.00
42111;BME280;27766;52.174;5.456;2022-10-23T11:22:05;100686.19;;;14.85;100.00
42111;BME280;27766;52.174;5.456;2022-10-23T11:24:57;100681.84;;;14.85;100.00
42111;BME280;27766;52.174;5.456;2022-10-23T11:30:58;100678.34;;;14.88;100.00
42111;BME280;27766;52.174;5.456;2022-10-23T11:33:50;100665.31;;;14.93;100.00
42111;BME280;27766;52.174;5.456;2022-10-23T11:39:36;100645.28;;;15.10;100.00
42111;BME280;27766;52.174;5.456;2022-10-23T11:44:44;100639.97;;;15.29;100.00
42111;BME280;27766;52.174;5.456;2022-10-23T11:47:32;100635.59;;;15.40;100.00
42111;BME280;27766;52.174;5.456;2022-10-23T11:52:34;100618.06;;;15.61;100.00
42111;BME280;27766;52.174;5.456;2022-10-23T11:55:17;100618.88;;;15.74;100.00
42111;BME280;27766;52.174;5.456;2022-10-23T11:58:08;100610.09;;;15.82;100.00
42111;BME280;27766;52.174;5.456;2022-10-23T12:00:50;100614.41;;;15.93;100.00
42111;BME280;27766;52.174;5.456;2022-10-23T12:03:22;100604.78;;;15.98;100.00
42111;BME280;27766;52.174;5.456;2022-10-23T12:05:58;100603.00;;;16.05;100.00
42111;BME280;27766;52.174;5.456;2022-10-23T12:08:29;100581.25;;;16.06;100.00
42111;BME280;27766;52.174;5.456;2022-10-23T12:10:58;100582.91;;;16.14;100.00
42111;BME280;27766;52.174;5.456;2022-10-23T12:16:03;100598.56;;;16.16;100.00
42111;BME280;27766;52.174;5.456;2022-10-23T12:18:31;100594.16;;;16.21;100.00
42111;BME280;27766;52.174;5.456;2022-10-23T12:21:00;100595.91;;;16.22;100.00
42111;BME280;27766;52.174;5.456;2022-10-23T12:23:44;100582.81;;;16.24;100.00
42111;BME280;27766;52.174;5.456;2022-10-23T12:26:41;100581.03;;;16.27;100.00
42111;BME280;27766;52.174;5.456;2022-10-23T12:29:23;100573.19;;;16.29;100.00
42111;BME280;27766;52.174;5.456;2022-10-23T12:34:48;100554.88;;;16.35;100.00
42111;BME280;27766;52.174;5.456;2022-10-23T12:37:42;100544.41;;;16.37;100.00
42111;BME280;27766;52.174;5.456;2022-10-23T12:40:15;100551.34;;;16.36;100.00
42111;BME280;27766;52.174;5.456;2022-10-23T12:42:50;100554.81;;;16.41;100.00
42111;BME280;27766;52.174;5.456;2022-10-23T12:45:22;100533.16;;;16.32;100.00
42111;BME280;27766;52.174;5.456;2022-10-23T12:47:51;100546.09;;;16.39;100.00
42111;BME280;27766;52.174;5.456;2022-10-23T12:50:23;100540.91;;;16.36;100.00
42111;BME280;27766;52.174;5.456;2022-10-23T12:52:58;100533.06;;;16.38;100.00
42111;BME280;27766;52.174;5.456;2022-10-23T12:55:48;100532.16;;;16.40;100.00
42111;BME280;27766;52.174;5.456;2022-10-23T12:58:23;100531.25;;;16.46;100.00
42111;BME280;27766;52.174;5.456;2022-10-23T13:00:52;100528.59;;;16.48;100.00
42111;BME280;27766;52.174;5.456;2022-10-23T13:03:22;100513.75;;;16.51;100.00
42111;BME280;27766;52.174;5.456;2022-10-23T13:05:52;100499.00;;;16.49;100.00
42111;BME280;27766;52.174;5.456;2022-10-23T13:08:21;100495.44;;;16.53;100.00
42111;BME280;27766;52.174;5.456;2022-10-23T13:10:49;100497.13;;;16.58;100.00
42111;BME280;27766;52.174;5.456;2022-10-23T13:13:20;100489.31;;;16.55;100.00
42111;BME280;27766;52.174;5.456;2022-10-23T13:15:49;100482.34;;;16.57;100.00
42111;BME280;27766;52.174;5.456;2022-10-23T13:18:16;100489.28;;;16.61;100.00
42111;BME280;27766;52.174;5.456;2022-10-23T13:25:54;100483.06;;;16.67;100.00
42111;BME280;27766;52.174;5.456;2022-10-23T13:28:25;100476.06;;;16.71;100.00
42111;BME280;27766;52.174;5.456;2022-10-23T13:33:37;100469.97;;;16.73;100.00
42111;BME280;27766;52.174;5.456;2022-10-23T13:41:29;100442.06;;;16.74;100.00
42111;BME280;27766;52.174;5.456;2022-10-23T13:43:57;100437.69;;;16.74;100.00
42111;BME280;27766;52.174;5.456;2022-10-23T13:46:24;100429.72;;;16.84;100.00
42111;BME280;27766;52.174;5.456;2022-10-23T13:48:51;100431.34;;;16.91;100.00
42111;BME280;27766;52.174;5.456;2022-10-23T13:51:21;100420.06;;;16.90;100.00
42111;BME280;27766;52.174;5.456;2022-10-23T13:53:49;100410.41;;;16.97;100.00
42111;BME280;27766;52.174;5.456;2022-10-23T13:56:19;100405.13;;;17.00;100.00
42111;BME280;27766;52.174;5.456;2022-10-23T13:58:47;100395.50;;;17.02;100.00
42111;BME280;27766;52.174;5.456;2022-10-23T14:01:24;100400.63;;;17.08;100.00
42111;BME280;27766;52.174;5.456;2022-10-23T14:03:53;100401.47;;;17.09;100.00
42111;BME280;27766;52.174;5.456;2022-10-23T14:06:20;100398.88;;;17.11;100.00
42111;BME280;27766;52.174;5.456;2022-10-23T14:08:47;100400.53;;;17.15;100.00
42111;BME280;27766;52.174;5.456;2022-10-23T14:11:17;100396.16;;;17.17;100.00
42111;BME280;27766;52.174;5.456;2022-10-23T14:13:46;100397.03;;;17.16;100.00
42111;BME280;27766;52.174;5.456;2022-10-23T14:16:14;100388.34;;;17.14;100.00
42111;BME280;27766;52.174;5.456;2022-10-23T14:18:42;100382.25;;;17.13;100.00
42111;BME280;27766;52.174;5.456;2022-10-23T14:21:17;100379.69;;;17.12;100.00